sensor_id;sensor_type;location;lat;lon;timestamp;P1;durP1;ratioP1;P2;durP2;ratioP2
51214;SDS011;63849;47.546;19.254;2024-03-23T00:53:29;52.53;;;39.15;;
51214;SDS011;63849;47.546;19.254;2024-03-23T00:55:55;50.45;;;39.33;;
51214;SDS011;63849;47.546;19.254;2024-03-23T00:58:20;53.17;;;38.20;;
51214;SDS011;63849;47.546;19.254;2024-03-23T01:00:46;54.60;;;41.22;;
51214;SDS011;63849;47.546;19.254;2024-03-23T01:03:11;50.72;;;38.15;;
51214;SDS011;63849;47.546;19.254;2024-03-23T01:05:37;50.97;;;39.75;;
51214;SDS011;63849;47.546;19.254;2024-03-23T01:08:03;49.85;;;37.92;;
51214;SDS011;63849;47.546;19.254;2024-03-23T01:10:28;52.67;;;38.80;;
51214;SDS011;63849;47.546;19.254;2024-03-23T01:12:54;48.97;;;37.95;;
51214;SDS011;63849;47.546;19.254;2024-03-23T01:15:20;49.88;;;37.85;;
51214;SDS011;63849;47.546;19.254;2024-03-23T01:17:45;48.08;;;37.90;;
51214;SDS011;63849;47.546;19.254;2024-03-23T01:20:11;48.97;;;39.20;;
51214;SDS011;63849;47.546;19.254;2024-03-23T01:22:37;51.55;;;39.55;;
51214;SDS011;63849;47.546;19.254;2024-03-23T01:25:03;53.70;;;40.85;;
51214;SDS011;63849;47.546;19.254;2024-03-23T01:27:28;53.08;;;40.15;;
51214;SDS011;63849;47.546;19.254;2024-03-23T01:29:54;54.72;;;39.88;;
51214;SDS011;63849;47.546;19.254;2024-03-23T01:32:20;51.92;;;39.78;;
51214;SDS011;63849;47.546;19.254;2024-03-23T01:34:45;49.65;;;38.22;;
51214;SDS011;63849;47.546;19.254;2024-03-23T01:37:11;50.58;;;39.47;;
51214;SDS011;63849;47.546;19.254;2024-03-23T01:39:36;50.45;;;39.10;;
51214;SDS011;63849;47.546;19.254;2024-03-23T01:42:03;51.30;;;38.95;;
51214;SDS011;63849;47.546;19.254;2024-03-23T01:44:29;52.92;;;39.38;;
51214;SDS011;63849;47.546;19.254;2024-03-23T01:46:54;47.78;;;37.60;;
51214;SDS011;63849;47.546;19.254;2024-03-23T01:49:20;50.90;;;37.97;;
51214;SDS011;63849;47.546;19.254;2024-03-23T01:51:46;54.92;;;39.58;;
51214;SDS011;63849;47.546;19.254;2024-03-23T01:54:11;47.17;;;36.45;;
51214;SDS011;63849;47.546;19.254;2024-03-23T01:56:37;50.33;;;36.47;;
51214;SDS011;63849;47.546;19.254;2024-03-23T01:59:06;48.53;;;36.00;;
51214;SDS011;63849;47.546;19.254;2024-03-23T02:01:32;48.95;;;35.22;;
51214;SDS011;63849;47.546;19.254;2024-03-23T02:04:00;49.47;;;38.28;;
51214;SDS011;63849;47.546;19.254;2024-03-23T02:06:26;48.42;;;35.70;;
51214;SDS011;63849;47.546;19.254;2024-03-23T02:08:53;51.03;;;36.42;;
51214;SDS011;63849;47.546;19.254;2024-03-23T02:11:19;49.60;;;35.88;;
51214;SDS011;63849;47.546;19.254;2024-03-23T02:13:45;47.72;;;35.17;;
51214;SDS011;63849;47.546;19.254;2024-03-23T02:16:11;50.25;;;36.17;;
51214;SDS011;63849;47.546;19.254;2024-03-23T02:18:38;49.08;;;35.92;;
51214;SDS011;63849;47.546;19.254;2024-03-23T02:21:04;49.65;;;36.40;;
51214;SDS011;63849;47.546;19.254;2024-03-23T02:23:30;50.03;;;36.58;;
51214;SDS011;63849;47.546;19.254;2024-03-23T02:25:55;48.05;;;34.50;;
51214;SDS011;63849;47.546;19.254;2024-03-23T02:28:21;48.30;;;35.83;;
51214;SDS011;63849;47.546;19.254;2024-03-23T02:30:48;46.92;;;35.78;;
51214;SDS011;63849;47.546;19.254;2024-03-23T02:33:15;47.10;;;34.22;;
51214;SDS011;63849;47.546;19.254;2024-03-23T02:35:41;46.75;;;33.63;;
51214;SDS011;63849;47.546;19.254;2024-03-23T02:38:06;47.15;;;35.13;;
51214;SDS011;63849;47.546;19.254;2024-03-23T02:40:32;50.38;;;33.33;;
51214;SDS011;63849;47.546;19.254;2024-03-23T02:42:58;45.80;;;33.67;;
51214;SDS011;63849;47.546;19.254;2024-03-23T02:45:23;45.35;;;32.78;;
51214;SDS011;63849;47.546;19.254;2024-03-23T02:47:49;42.35;;;31.70;;
51214;SDS011;63849;47.546;19.254;2024-03-23T02:50:18;42.42;;;31.90;;
51214;SDS011;63849;47.546;19.254;2024-03-23T02:52:45;45.25;;;33.45;;
51214;SDS011;63849;47.546;19.254;2024-03-23T02:55:11;38.90;;;30.83;;
51214;SDS011;63849;47.546;19.254;2024-03-23T02:57:37;45.47;;;31.88;;
51214;SDS011;63849;47.546;19.254;2024-03-23T03:00:02;43.33;;;32.10;;
51214;SDS011;63849;47.546;19.254;2024-03-23T03:02:28;43.08;;;31.95;;
51214;SDS011;63849;47.546;19.254;2024-03-23T03:04:54;40.78;;;31.58;;
51214;SDS011;63849;47.546;19.254;2024-03-23T03:07:20;44.22;;;31.50;;
51214;SDS011;63849;47.546;19.254;2024-03-23T03:09:45;38.25;;;30.23;;
51214;SDS011;63849;47.546;19.254;2024-03-23T03:12:11;40.40;;;31.55;;
51214;SDS011;63849;47.546;19.254;2024-03-23T03:14:37;44.78;;;30.77;;
51214;SDS011;63849;47.546;19.254;2024-03-23T03:17:02;42.30;;;30.85;;
51214;SDS011;63849;47.546;19.254;2024-03-23T03:19:28;42.20;;;31.08;;
51214;SDS011;63849;47.546;19.254;2024-03-23T03:21:54;39.50;;;30.45;;
51214;SDS011;63849;47.546;19.254;2024-03-23T03:24:20;44.90;;;31.92;;
51214;SDS011;63849;47.546;19.254;2024-03-23T03:26:46;43.85;;;30.75;;
51214;SDS011;63849;47.546;19.254;2024-03-23T03:29:12;45.90;;;31.90;;
51214;SDS011;63849;47.546;19.254;2024-03-23T03:31:38;42.92;;;31.48;;
51214;SDS011;63849;47.546;19.254;2024-03-23T03:34:04;37.13;;;28.60;;
51214;SDS011;63849;47.546;19.254;2024-03-23T03:36:30;41.45;;;30.45;;
51214;SDS011;63849;47.546;19.254;2024-03-23T03:38:55;38.45;;;29.90;;
51214;SDS011;63849;47.546;19.254;2024-03-23T03:41:21;38.67;;;30.33;;
51214;SDS011;63849;47.546;19.254;2024-03-23T03:43:47;41.65;;;31.33;;
51214;SDS011;63849;47.546;19.254;2024-03-23T03:46:12;37.20;;;28.38;;
51214;SDS011;63849;47.546;19.254;2024-03-23T03:48:38;39.35;;;28.77;;
51214;SDS011;63849;47.546;19.254;2024-03-23T03:51:04;38.92;;;28.63;;
51214;SDS011;63849;47.546;19.254;2024-03-23T03:53:30;39.85;;;28.42;;
51214;SDS011;63849;47.546;19.254;2024-03-23T03:55:56;41.03;;;27.95;;
51214;SDS011;63849;47.546;19.254;2024-03-23T03:58:25;35.53;;;28.10;;
51214;SDS011;63849;47.546;19.254;2024-03-23T04:00:51;34.00;;;27.40;;
51214;SDS011;63849;47.546;19.254;2024-03-23T04:03:16;35.72;;;27.98;;
51214;SDS011;63849;47.546;19.254;2024-03-23T04:05:42;31.83;;;26.85;;
51214;SDS011;63849;47.546;19.254;2024-03-23T04:08:08;35.67;;;25.95;;
51214;SDS011;63849;47.546;19.254;2024-03-23T04:10:33;33.35;;;24.55;;
51214;SDS011;63849;47.546;19.254;2024-03-23T04:12:59;31.20;;;24.92;;
51214;SDS011;63849;47.546;19.254;2024-03-23T04:15:26;38.38;;;27.42;;
51214;SDS011;63849;47.546;19.254;2024-03-23T04:17:51;35.85;;;25.77;;
51214;SDS011;63849;47.546;19.254;2024-03-23T04:20:17;32.92;;;26.25;;
51214;SDS011;63849;47.546;19.254;2024-03-23T04:22:43;32.63;;;25.55;;
51214;SDS011;63849;47.546;19.254;2024-03-23T04:25:09;34.60;;;25.40;;
51214;SDS011;63849;47.546;19.254;2024-03-23T04:27:38;35.90;;;26.15;;
51214;SDS011;63849;47.546;19.254;2024-03-23T04:30:05;35.88;;;26.38;;
51214;SDS011;63849;47.546;19.254;2024-03-23T04:32:36;35.20;;;26.00;;
51214;SDS011;63849;47.546;19.254;2024-03-23T04:35:02;35.13;;;26.10;;
51214;SDS011;63849;47.546;19.254;2024-03-23T04:37:33;31.45;;;25.27;;
51214;SDS011;63849;47.546;19.254;2024-03-23T04:39:59;31.90;;;24.98;;
51214;SDS011;63849;47.546;19.254;2024-03-23T04:42:26;32.33;;;25.98;;
51214;SDS011;63849;47.546;19.254;2024-03-23T04:44:52;34.28;;;26.77;;
51214;SDS011;63849;47.546;19.254;2024-03-23T04:47:18;32.15;;;25.63;;
51214;SDS011;63849;47.546;19.254;2024-03-23T04:49:44;36.22;;;26.73;;
51214;SDS011;63849;47.546;19.254;2024-03-23T04:52:10;30.08;;;24.92;;
51214;SDS011;63849;47.546;19.254;2024-03-23T04:54:35;33.88;;;25.48;;
51214;SDS011;63849;47.546;19.254;2024-03-23T04:57:01;31.73;;;25.85;;
51214;SDS011;63849;47.546;19.254;2024-03-23T04:59:27;32.80;;;24.88;;
51214;SDS011;63849;47.546;19.254;2024-03-23T05:01:52;30.65;;;25.15;;
51214;SDS011;63849;47.546;19.254;2024-03-23T05:04:18;33.13;;;24.38;;
51214;SDS011;63849;47.546;19.254;2024-03-23T05:06:43;34.67;;;25.02;;
51214;SDS011;63849;47.546;19.254;2024-03-23T05:09:09;36.05;;;25.50;;
51214;SDS011;63849;47.546;19.254;2024-03-23T05:11:37;31.70;;;24.73;;
51214;SDS011;63849;47.546;19.254;2024-03-23T05:14:03;33.30;;;25.33;;
51214;SDS011;63849;47.546;19.254;2024-03-23T05:16:29;31.23;;;23.80;;
51214;SDS011;63849;47.546;19.254;2024-03-23T05:18:55;32.33;;;25.75;;
51214;SDS011;63849;47.546;19.254;2024-03-23T05:21:20;32.20;;;24.42;;
51214;SDS011;63849;47.546;19.254;2024-03-23T05:23:46;31.98;;;23.50;;
51214;SDS011;63849;47.546;19.254;2024-03-23T05:26:12;33.97;;;24.48;;
51214;SDS011;63849;47.546;19.254;2024-03-23T05:28:39;31.42;;;25.40;;
51214;SDS011;63849;47.546;19.254;2024-03-23T05:31:04;31.50;;;25.20;;
51214;SDS011;63849;47.546;19.254;2024-03-23T05:33:30;35.38;;;26.15;;
51214;SDS011;63849;47.546;19.254;2024-03-23T05:36:00;36.40;;;27.67;;
51214;SDS011;63849;47.546;19.254;2024-03-23T05:38:26;34.63;;;27.15;;
51214;SDS011;63849;47.546;19.254;2024-03-23T05:40:56;36.17;;;28.40;;
51214;SDS011;63849;47.546;19.254;2024-03-23T05:43:23;34.30;;;27.60;;
51214;SDS011;63849;47.546;19.254;2024-03-23T05:45:58;35.15;;;28.08;;
51214;SDS011;63849;47.546;19.254;2024-03-23T05:48:25;38.08;;;29.60;;
51214;SDS011;63849;47.546;19.254;2024-03-23T05:50:51;38.42;;;31.00;;
51214;SDS011;63849;47.546;19.254;2024-03-23T05:53:18;38.15;;;32.10;;
51214;SDS011;63849;47.546;19.254;2024-03-23T05:55:47;35.63;;;30.27;;
51214;SDS011;63849;47.546;19.254;2024-03-23T05:58:14;36.15;;;30.15;;
51214;SDS011;63849;47.546;19.254;2024-03-23T06:00:40;41.15;;;29.50;;
51214;SDS011;63849;47.546;19.254;2024-03-23T06:03:07;34.30;;;27.58;;
51214;SDS011;63849;47.546;19.254;2024-03-23T06:05:33;33.58;;;28.10;;
51214;SDS011;63849;47.546;19.254;2024-03-23T06:07:58;35.20;;;29.17;;
51214;SDS011;63849;47.546;19.254;2024-03-23T06:10:24;34.85;;;28.95;;
51214;SDS011;63849;47.546;19.254;2024-03-23T06:12:50;34.90;;;28.63;;
51214;SDS011;63849;47.546;19.254;2024-03-23T06:15:17;36.85;;;29.77;;
51214;SDS011;63849;47.546;19.254;2024-03-23T06:17:44;33.85;;;28.05;;
51214;SDS011;63849;47.546;19.254;2024-03-23T06:20:09;34.65;;;28.83;;
51214;SDS011;63849;47.546;19.254;2024-03-23T06:22:36;35.92;;;28.95;;
51214;SDS011;63849;47.546;19.254;2024-03-23T06:25:02;32.33;;;28.00;;
51214;SDS011;63849;47.546;19.254;2024-03-23T06:27:28;33.67;;;28.85;;
51214;SDS011;63849;47.546;19.254;2024-03-23T06:29:54;37.88;;;30.45;;
51214;SDS011;63849;47.546;19.254;2024-03-23T06:32:20;34.67;;;29.63;;
51214;SDS011;63849;47.546;19.254;2024-03-23T06:34:46;38.95;;;28.90;;
51214;SDS011;63849;47.546;19.254;2024-03-23T06:37:11;37.80;;;28.75;;
51214;SDS011;63849;47.546;19.254;2024-03-23T06:39:37;40.03;;;30.70;;
51214;SDS011;63849;47.546;19.254;2024-03-23T06:42:04;39.53;;;31.48;;
51214;SDS011;63849;47.546;19.254;2024-03-23T06:44:30;38.58;;;30.90;;
51214;SDS011;63849;47.546;19.254;2024-03-23T06:46:56;38.38;;;31.92;;
51214;SDS011;63849;47.546;19.254;2024-03-23T06:49:22;39.88;;;31.40;;
51214;SDS011;63849;47.546;19.254;2024-03-23T06:55:05;41.97;;;31.25;;
51214;SDS011;63849;47.546;19.254;2024-03-23T06:57:31;35.90;;;30.25;;
51214;SDS011;63849;47.546;19.254;2024-03-23T06:59:57;34.25;;;29.00;;
51214;SDS011;63849;47.546;19.254;2024-03-23T07:02:23;34.97;;;29.27;;
51214;SDS011;63849;47.546;19.254;2024-03-23T07:04:48;33.72;;;28.88;;
51214;SDS011;63849;47.546;19.254;2024-03-23T07:07:14;31.50;;;27.98;;
51214;SDS011;63849;47.546;19.254;2024-03-23T07:09:39;36.42;;;28.08;;
51214;SDS011;63849;47.546;19.254;2024-03-23T07:12:05;31.63;;;27.27;;
51214;SDS011;63849;47.546;19.254;2024-03-23T07:14:31;35.15;;;27.95;;
51214;SDS011;63849;47.546;19.254;2024-03-23T07:16:56;33.85;;;26.13;;
51214;SDS011;63849;47.546;19.254;2024-03-23T07:19:22;32.45;;;26.42;;
51214;SDS011;63849;47.546;19.254;2024-03-23T07:21:49;30.15;;;25.27;;
51214;SDS011;63849;47.546;19.254;2024-03-23T07:24:15;29.50;;;25.77;;
51214;SDS011;63849;47.546;19.254;2024-03-23T07:26:41;34.55;;;25.40;;
51214;SDS011;63849;47.546;19.254;2024-03-23T07:29:06;30.80;;;26.00;;
51214;SDS011;63849;47.546;19.254;2024-03-23T07:31:32;29.83;;;26.63;;
51214;SDS011;63849;47.546;19.254;2024-03-23T07:33:58;31.63;;;26.52;;
51214;SDS011;63849;47.546;19.254;2024-03-23T07:36:24;31.63;;;25.63;;
51214;SDS011;63849;47.546;19.254;2024-03-23T07:38:49;31.45;;;26.73;;
51214;SDS011;63849;47.546;19.254;2024-03-23T07:41:17;31.08;;;26.60;;
51214;SDS011;63849;47.546;19.254;2024-03-23T07:43:44;29.73;;;26.52;;
51214;SDS011;63849;47.546;19.254;2024-03-23T07:46:10;28.40;;;25.17;;
51214;SDS011;63849;47.546;19.254;2024-03-23T07:48:37;28.55;;;25.55;;
51214;SDS011;63849;47.546;19.254;2024-03-23T07:53:33;27.27;;;24.38;;
51214;SDS011;63849;47.546;19.254;2024-03-23T07:56:01;30.25;;;24.77;;
51214;SDS011;63849;47.546;19.254;2024-03-23T07:58:27;29.83;;;25.20;;
51214;SDS011;63849;47.546;19.254;2024-03-23T08:00:54;30.63;;;25.13;;
51214;SDS011;63849;47.546;19.254;2024-03-23T08:03:20;30.35;;;24.15;;
51214;SDS011;63849;47.546;19.254;2024-03-23T08:05:46;26.10;;;23.50;;
51214;SDS011;63849;47.546;19.254;2024-03-23T08:08:12;27.42;;;23.45;;
51214;SDS011;63849;47.546;19.254;2024-03-23T08:10:50;27.52;;;24.30;;
51214;SDS011;63849;47.546;19.254;2024-03-23T08:13:17;26.75;;;24.05;;
51214;SDS011;63849;47.546;19.254;2024-03-23T08:15:43;26.80;;;22.75;;
51214;SDS011;63849;47.546;19.254;2024-03-23T08:18:10;29.67;;;24.45;;
51214;SDS011;63849;47.546;19.254;2024-03-23T08:20:36;27.92;;;23.85;;
51214;SDS011;63849;47.546;19.254;2024-03-23T08:23:02;24.63;;;22.02;;
51214;SDS011;63849;47.546;19.254;2024-03-23T08:25:30;24.88;;;22.33;;
51214;SDS011;63849;47.546;19.254;2024-03-23T08:27:58;24.60;;;21.95;;
51214;SDS011;63849;47.546;19.254;2024-03-23T08:30:24;22.50;;;19.88;;
51214;SDS011;63849;47.546;19.254;2024-03-23T08:32:50;22.13;;;19.63;;
51214;SDS011;63849;47.546;19.254;2024-03-23T08:35:16;25.30;;;20.83;;
51214;SDS011;63849;47.546;19.254;2024-03-23T08:37:41;21.20;;;19.08;;
51214;SDS011;63849;47.546;19.254;2024-03-23T08:40:07;23.23;;;18.40;;
51214;SDS011;63849;47.546;19.254;2024-03-23T08:42:33;22.08;;;18.48;;
51214;SDS011;63849;47.546;19.254;2024-03-23T08:44:59;19.50;;;16.83;;
51214;SDS011;63849;47.546;19.254;2024-03-23T08:47:25;19.55;;;17.52;;
51214;SDS011;63849;47.546;19.254;2024-03-23T08:49:51;20.00;;;17.75;;
51214;SDS011;63849;47.546;19.254;2024-03-23T08:52:17;19.35;;;17.25;;
51214;SDS011;63849;47.546;19.254;2024-03-23T08:54:43;18.58;;;16.67;;
51214;SDS011;63849;47.546;19.254;2024-03-23T08:57:09;17.70;;;15.82;;
51214;SDS011;63849;47.546;19.254;2024-03-23T08:59:34;21.70;;;16.40;;
51214;SDS011;63849;47.546;19.254;2024-03-23T09:02:00;17.67;;;15.40;;
51214;SDS011;63849;47.546;19.254;2024-03-23T09:04:26;16.52;;;14.82;;
51214;SDS011;63849;47.546;19.254;2024-03-23T09:06:51;17.63;;;15.82;;
51214;SDS011;63849;47.546;19.254;2024-03-23T09:09:17;17.65;;;15.70;;
51214;SDS011;63849;47.546;19.254;2024-03-23T09:11:44;16.85;;;15.15;;
51214;SDS011;63849;47.546;19.254;2024-03-23T09:14:10;20.52;;;15.85;;
51214;SDS011;63849;47.546;19.254;2024-03-23T09:16:36;17.50;;;15.60;;
51214;SDS011;63849;47.546;19.254;2024-03-23T09:19:01;16.80;;;14.82;;
51214;SDS011;63849;47.546;19.254;2024-03-23T09:21:28;17.60;;;15.02;;
51214;SDS011;63849;47.546;19.254;2024-03-23T09:23:53;17.00;;;14.30;;
51214;SDS011;63849;47.546;19.254;2024-03-23T09:26:19;15.57;;;14.07;;
51214;SDS011;63849;47.546;19.254;2024-03-23T09:28:47;16.52;;;14.63;;
51214;SDS011;63849;47.546;19.254;2024-03-23T09:31:13;16.50;;;14.38;;
51214;SDS011;63849;47.546;19.254;2024-03-23T09:33:40;18.05;;;15.48;;
51214;SDS011;63849;47.546;19.254;2024-03-23T09:36:06;19.23;;;15.50;;
51214;SDS011;63849;47.546;19.254;2024-03-23T09:38:33;17.15;;;14.15;;
51214;SDS011;63849;47.546;19.254;2024-03-23T09:40:59;20.42;;;13.77;;
51214;SDS011;63849;47.546;19.254;2024-03-23T09:43:25;17.52;;;14.65;;
51214;SDS011;63849;47.546;19.254;2024-03-23T09:45:50;16.63;;;13.40;;
51214;SDS011;63849;47.546;19.254;2024-03-23T09:48:17;17.63;;;14.43;;
51214;SDS011;63849;47.546;19.254;2024-03-23T09:50:43;15.60;;;14.00;;
51214;SDS011;63849;47.546;19.254;2024-03-23T09:53:10;16.30;;;13.60;;
51214;SDS011;63849;47.546;19.254;2024-03-23T09:55:40;16.55;;;14.02;;
51214;SDS011;63849;47.546;19.254;2024-03-23T09:58:08;17.50;;;13.88;;
51214;SDS011;63849;47.546;19.254;2024-03-23T10:00:38;16.35;;;14.55;;
51214;SDS011;63849;47.546;19.254;2024-03-23T10:03:04;15.48;;;14.00;;
51214;SDS011;63849;47.546;19.254;2024-03-23T10:05:31;15.38;;;13.35;;
51214;SDS011;63849;47.546;19.254;2024-03-23T10:07:59;17.30;;;13.10;;
51214;SDS011;63849;47.546;19.254;2024-03-23T10:10:40;16.55;;;13.68;;
51214;SDS011;63849;47.546;19.254;2024-03-23T10:13:06;15.18;;;13.43;;
51214;SDS011;63849;47.546;19.254;2024-03-23T10:15:33;14.13;;;12.73;;
51214;SDS011;63849;47.546;19.254;2024-03-23T10:18:17;14.55;;;12.93;;
51214;SDS011;63849;47.546;19.254;2024-03-23T10:20:50;14.13;;;12.73;;
51214;SDS011;63849;47.546;19.254;2024-03-23T10:23:34;13.15;;;11.85;;
51214;SDS011;63849;47.546;19.254;2024-03-23T10:28:58;18.13;;;11.45;;
51214;SDS011;63849;47.546;19.254;2024-03-23T10:31:27;17.40;;;10.88;;
51214;SDS011;63849;47.546;19.254;2024-03-23T10:33:54;17.58;;;11.02;;
51214;SDS011;63849;47.546;19.254;2024-03-23T10:36:20;16.35;;;9.70;;
51214;SDS011;63849;47.546;19.254;2024-03-23T10:38:47;12.05;;;10.15;;
51214;SDS011;63849;47.546;19.254;2024-03-23T10:41:14;11.98;;;9.60;;
51214;SDS011;63849;47.546;19.254;2024-03-23T10:43:40;9.88;;;8.70;;
51214;SDS011;63849;47.546;19.254;2024-03-23T10:46:07;12.45;;;8.07;;
51214;SDS011;63849;47.546;19.254;2024-03-23T10:48:34;13.32;;;8.32;;
51214;SDS011;63849;47.546;19.254;2024-03-23T10:51:00;11.07;;;7.28;;
51214;SDS011;63849;47.546;19.254;2024-03-23T10:53:26;11.88;;;6.55;;
51214;SDS011;63849;47.546;19.254;2024-03-23T10:55:53;12.45;;;5.82;;
51214;SDS011;63849;47.546;19.254;2024-03-23T10:58:25;7.07;;;5.70;;
51214;SDS011;63849;47.546;19.254;2024-03-23T11:01:03;6.07;;;5.43;;
51214;SDS011;63849;47.546;19.254;2024-03-23T11:03:32;14.02;;;6.45;;
51214;SDS011;63849;47.546;19.254;2024-03-23T11:06:00;11.23;;;5.60;;
51214;SDS011;63849;47.546;19.254;2024-03-23T11:08:39;9.30;;;5.60;;
51214;SDS011;63849;47.546;19.254;2024-03-23T11:11:19;10.30;;;5.22;;
51214;SDS011;63849;47.546;19.254;2024-03-23T11:13:47;8.52;;;4.78;;
51214;SDS011;63849;47.546;19.254;2024-03-23T11:16:15;11.98;;;5.45;;
51214;SDS011;63849;47.546;19.254;2024-03-23T11:18:43;9.60;;;5.18;;
51214;SDS011;63849;47.546;19.254;2024-03-23T11:21:10;12.52;;;5.47;;
51214;SDS011;63849;47.546;19.254;2024-03-23T11:24:03;12.35;;;5.05;;
51214;SDS011;63849;47.546;19.254;2024-03-23T11:26:38;11.98;;;6.07;;
51214;SDS011;63849;47.546;19.254;2024-03-23T11:29:14;6.97;;;4.68;;
51214;SDS011;63849;47.546;19.254;2024-03-23T11:31:51;9.85;;;4.72;;
51214;SDS011;63849;47.546;19.254;2024-03-23T11:34:21;8.77;;;5.65;;
51214;SDS011;63849;47.546;19.254;2024-03-23T11:36:47;6.32;;;5.70;;
51214;SDS011;63849;47.546;19.254;2024-03-23T11:39:14;10.10;;;5.20;;
51214;SDS011;63849;47.546;19.254;2024-03-23T11:41:56;18.73;;;6.30;;
51214;SDS011;63849;47.546;19.254;2024-03-23T11:44:23;6.63;;;5.50;;
51214;SDS011;63849;47.546;19.254;2024-03-23T11:46:50;7.90;;;5.53;;
51214;SDS011;63849;47.546;19.254;2024-03-23T11:49:29;8.02;;;4.57;;
51214;SDS011;63849;47.546;19.254;2024-03-23T11:51:55;9.23;;;5.20;;
51214;SDS011;63849;47.546;19.254;2024-03-23T11:54:22;6.22;;;5.28;;
51214;SDS011;63849;47.546;19.254;2024-03-23T11:57:01;8.02;;;4.93;;
51214;SDS011;63849;47.546;19.254;2024-03-23T11:59:36;11.75;;;5.70;;
51214;SDS011;63849;47.546;19.254;2024-03-23T12:02:06;8.20;;;4.97;;
51214;SDS011;63849;47.546;19.254;2024-03-23T12:04:33;6.78;;;5.82;;
51214;SDS011;63849;47.546;19.254;2024-03-23T12:09:36;11.55;;;4.80;;
51214;SDS011;63849;47.546;19.254;2024-03-23T12:12:05;12.68;;;5.25;;
51214;SDS011;63849;47.546;19.254;2024-03-23T12:14:35;9.32;;;4.80;;
51214;SDS011;63849;47.546;19.254;2024-03-23T12:17:08;7.93;;;5.03;;
51214;SDS011;63849;47.546;19.254;2024-03-23T12:19:34;7.47;;;5.10;;
51214;SDS011;63849;47.546;19.254;2024-03-23T12:22:00;6.30;;;4.97;;
51214;SDS011;63849;47.546;19.254;2024-03-23T12:24:26;9.20;;;5.15;;
51214;SDS011;63849;47.546;19.254;2024-03-23T12:26:51;7.97;;;4.63;;
51214;SDS011;63849;47.546;19.254;2024-03-23T12:29:17;5.55;;;4.10;;
51214;SDS011;63849;47.546;19.254;2024-03-23T12:31:43;6.22;;;4.25;;
51214;SDS011;63849;47.546;19.254;2024-03-23T12:34:09;5.10;;;3.92;;
51214;SDS011;63849;47.546;19.254;2024-03-23T12:36:35;5.13;;;3.40;;
51214;SDS011;63849;47.546;19.254;2024-03-23T12:39:00;3.45;;;3.15;;
51214;SDS011;63849;47.546;19.254;2024-03-23T12:41:26;5.80;;;3.67;;
51214;SDS011;63849;47.546;19.254;2024-03-23T12:43:51;4.97;;;3.60;;
51214;SDS011;63849;47.546;19.254;2024-03-23T12:46:17;5.72;;;3.50;;
51214;SDS011;63849;47.546;19.254;2024-03-23T12:48:44;4.65;;;3.25;;
51214;SDS011;63849;47.546;19.254;2024-03-23T12:51:10;5.72;;;3.38;;
51214;SDS011;63849;47.546;19.254;2024-03-23T12:53:36;4.43;;;3.05;;
51214;SDS011;63849;47.546;19.254;2024-03-23T12:56:01;5.97;;;3.33;;
51214;SDS011;63849;47.546;19.254;2024-03-23T12:58:28;6.07;;;2.88;;
51214;SDS011;63849;47.546;19.254;2024-03-23T13:00:53;6.65;;;2.83;;
51214;SDS011;63849;47.546;19.254;2024-03-23T13:03:19;5.38;;;3.50;;
51214;SDS011;63849;47.546;19.254;2024-03-23T13:05:51;4.13;;;2.95;;
51214;SDS011;63849;47.546;19.254;2024-03-23T13:08:17;5.88;;;3.40;;
51214;SDS011;63849;47.546;19.254;2024-03-23T13:10:43;4.80;;;3.35;;
51214;SDS011;63849;47.546;19.254;2024-03-23T13:13:09;4.15;;;3.08;;
51214;SDS011;63849;47.546;19.254;2024-03-23T13:15:35;4.85;;;3.15;;
51214;SDS011;63849;47.546;19.254;2024-03-23T13:18:01;5.78;;;3.40;;
51214;SDS011;63849;47.546;19.254;2024-03-23T13:20:27;6.07;;;3.45;;
51214;SDS011;63849;47.546;19.254;2024-03-23T13:22:52;10.80;;;3.45;;
51214;SDS011;63849;47.546;19.254;2024-03-23T13:25:18;3.38;;;2.70;;
51214;SDS011;63849;47.546;19.254;2024-03-23T13:27:44;2.92;;;2.33;;
51214;SDS011;63849;47.546;19.254;2024-03-23T13:30:09;4.68;;;3.28;;
51214;SDS011;63849;47.546;19.254;2024-03-23T13:32:35;3.47;;;3.17;;
51214;SDS011;63849;47.546;19.254;2024-03-23T13:35:01;5.53;;;3.50;;
51214;SDS011;63849;47.546;19.254;2024-03-23T13:37:27;6.68;;;3.63;;
51214;SDS011;63849;47.546;19.254;2024-03-23T13:39:53;6.50;;;4.15;;
51214;SDS011;63849;47.546;19.254;2024-03-23T13:42:18;4.07;;;3.20;;
51214;SDS011;63849;47.546;19.254;2024-03-23T13:44:44;5.60;;;3.25;;
51214;SDS011;63849;47.546;19.254;2024-03-23T13:47:09;6.90;;;3.58;;
51214;SDS011;63849;47.546;19.254;2024-03-23T13:49:35;9.77;;;4.45;;
51214;SDS011;63849;47.546;19.254;2024-03-23T13:52:01;7.90;;;4.78;;
51214;SDS011;63849;47.546;19.254;2024-03-23T13:54:27;7.07;;;4.75;;
51214;SDS011;63849;47.546;19.254;2024-03-23T13:56:53;6.47;;;4.47;;
51214;SDS011;63849;47.546;19.254;2024-03-23T13:59:20;4.13;;;3.55;;
51214;SDS011;63849;47.546;19.254;2024-03-23T14:01:48;10.15;;;3.80;;
51214;SDS011;63849;47.546;19.254;2024-03-23T14:04:13;7.45;;;4.50;;
51214;SDS011;63849;47.546;19.254;2024-03-23T14:06:41;5.97;;;3.75;;
51214;SDS011;63849;47.546;19.254;2024-03-23T14:09:07;6.45;;;3.53;;
51214;SDS011;63849;47.546;19.254;2024-03-23T14:11:36;2.50;;;2.30;;
51214;SDS011;63849;47.546;19.254;2024-03-23T14:14:02;3.90;;;2.70;;
51214;SDS011;63849;47.546;19.254;2024-03-23T14:16:29;4.05;;;2.72;;
51214;SDS011;63849;47.546;19.254;2024-03-23T14:18:58;5.43;;;2.75;;
51214;SDS011;63849;47.546;19.254;2024-03-23T14:21:24;3.97;;;2.45;;
51214;SDS011;63849;47.546;19.254;2024-03-23T14:23:49;4.65;;;3.13;;
51214;SDS011;63849;47.546;19.254;2024-03-23T14:26:15;3.78;;;2.53;;
51214;SDS011;63849;47.546;19.254;2024-03-23T14:28:41;3.92;;;2.55;;
51214;SDS011;63849;47.546;19.254;2024-03-23T14:31:06;6.18;;;4.30;;
51214;SDS011;63849;47.546;19.254;2024-03-23T14:33:38;5.72;;;3.20;;
51214;SDS011;63849;47.546;19.254;2024-03-23T14:36:10;9.07;;;3.53;;
51214;SDS011;63849;47.546;19.254;2024-03-23T14:38:36;8.82;;;5.38;;
51214;SDS011;63849;47.546;19.254;2024-03-23T14:41:02;6.43;;;5.30;;
51214;SDS011;63849;47.546;19.254;2024-03-23T14:43:29;4.90;;;4.40;;
51214;SDS011;63849;47.546;19.254;2024-03-23T14:48:33;8.10;;;5.53;;
51214;SDS011;63849;47.546;19.254;2024-03-23T14:51:00;8.73;;;6.80;;
51214;SDS011;63849;47.546;19.254;2024-03-23T14:53:26;8.52;;;6.43;;
51214;SDS011;63849;47.546;19.254;2024-03-23T14:55:58;8.85;;;6.25;;
51214;SDS011;63849;47.546;19.254;2024-03-23T14:58:25;8.32;;;6.38;;
51214;SDS011;63849;47.546;19.254;2024-03-23T15:00:51;6.55;;;5.55;;
51214;SDS011;63849;47.546;19.254;2024-03-23T15:03:17;10.77;;;7.00;;
51214;SDS011;63849;47.546;19.254;2024-03-23T15:05:55;11.35;;;8.68;;
51214;SDS011;63849;47.546;19.254;2024-03-23T15:08:22;9.02;;;4.53;;
51214;SDS011;63849;47.546;19.254;2024-03-23T15:10:48;6.82;;;3.83;;
51214;SDS011;63849;47.546;19.254;2024-03-23T15:13:14;6.80;;;3.15;;
51214;SDS011;63849;47.546;19.254;2024-03-23T15:15:41;4.25;;;3.25;;
51214;SDS011;63849;47.546;19.254;2024-03-23T15:18:09;7.22;;;3.25;;
51214;SDS011;63849;47.546;19.254;2024-03-23T15:20:39;3.42;;;2.67;;